Time;durP1;ratioP1;P1;durP2;ratioP2;P2;SDS_P1;SDS_P2;PMS_P1;PMS_P2;Temp;Humidity;BMP_temperature;BMP_pressure;BME280_temperature;BME280_humidity;BME280_pressure;Samples;Min_cycle;Max_cycle;Signal;HPM_P1;HPM_P2
2023/01/30 00:01:15;;;;;;;55.72;49.90;;;;;;;-0.25;100.00;101574.06;5061422;28;20041;-81
2023/01/30 00:03:43;;;;;;;55.45;49.88;;;;;;;-0.29;100.00;101577.84;5064112;28;20480;-81
2023/01/30 00:06:10;;;;;;;53.75;48.15;;;;;;;-0.34;100.00;101566.91;5055795;28;20510;-81
2023/01/30 00:08:36;;;;;;;54.17;48.97;;;;;;;-0.34;100.00;101570.34;5063170;28;20106;-81
2023/01/30 00:11:05;;;;;;;55.08;49.58;;;;;;;-0.32;100.00;101578.09;5062672;28;20488;-81
2023/01/30 00:13:31;;;;;;;58.47;52.63;;;;;;;-0.43;100.00;101570.19;5063027;28;20529;-82
2023/01/30 00:15:58;;;;;;;55.42;50.13;;;;;;;-0.31;100.00;101577.94;5060139;28;20166;-81
2023/01/30 00:18:25;;;;;;;55.72;49.97;;;;;;;-0.46;100.00;101564.25;5060129;28;20575;-81
2023/01/30 00:20:56;;;;;;;57.53;51.97;;;;;;;-0.29;100.00;101560.41;5060544;28;20045;-81
2023/01/30 00:23:23;;;;;;;57.03;51.40;;;;;;;-0.52;100.00;101561.28;5070811;28;20109;-81
2023/01/30 00:25:50;;;;;;;55.42;50.28;;;;;;;-0.41;100.00;101569.16;5060457;28;20048;-82
2023/01/30 00:28:17;;;;;;;57.25;51.55;;;;;;;-0.30;100.00;101566.59;5055794;28;20087;-81
2023/01/30 00:30:43;;;;;;;58.15;52.00;;;;;;;-0.39;100.00;101558.56;5058571;28;20555;-81
2023/01/30 00:33:10;;;;;;;58.30;52.45;;;;;;;-0.31;100.00;101556.25;5063148;28;20104;-81
2023/01/30 00:35:37;;;;;;;61.40;55.05;;;;;;;-0.34;100.00;101559.06;5059622;28;20088;-81
2023/01/30 00:38:05;;;;;;;56.50;50.40;;;;;;;-0.31;100.00;101559.66;5061057;28;20045;-82
2023/01/30 00:40:32;;;;;;;57.92;51.75;;;;;;;-0.31;100.00;101553.63;5061563;28;20126;-81
2023/01/30 00:48:28;;;;;;;66.40;57.42;;;;;;;-0.39;100.00;101550.75;5060677;28;20063;-81
2023/01/30 00:50:55;;;;;;;66.90;57.15;;;;;;;-0.44;100.00;101545.06;5065328;28;20105;-81
2023/01/30 00:53:23;;;;;;;92.57;72.75;;;;;;;-0.35;100.00;101553.03;5053429;28;20114;-81
2023/01/30 00:55:51;;;;;;;104.45;75.65;;;;;;;-0.28;100.00;101541.16;5062436;28;20110;-81
2023/01/30 00:58:18;;;;;;;99.15;84.93;;;;;;;-0.19;100.00;101537.03;5063278;28;20132;-81
2023/01/30 01:00:46;;;;;;;89.50;75.50;;;;;;;-0.15;100.00;101542.84;5061990;28;20048;-81
2023/01/30 01:03:13;;;;;;;92.55;82.60;;;;;;;-0.24;100.00;101541.78;5057949;28;20477;-81
2023/01/30 01:05:39;;;;;;;89.30;78.82;;;;;;;-0.26;100.00;101539.28;5061402;28;20110;-81
2023/01/30 01:08:06;;;;;;;86.72;77.53;;;;;;;-0.26;100.00;101530.63;5070382;28;20082;-81
2023/01/30 01:10:34;;;;;;;93.50;83.90;;;;;;;-0.39;100.00;101524.66;5062805;28;20103;-81
2023/01/30 01:13:02;;;;;;;73.63;60.22;;;;;;;-0.36;100.00;101530.50;5063902;28;20106;-81
2023/01/30 01:15:29;;;;;;;75.25;62.00;;;;;;;-0.33;100.00;101527.66;5056715;28;20045;-81
2023/01/30 01:17:56;;;;;;;78.00;70.03;;;;;;;-0.20;100.00;101518.88;5057621;28;20056;-81
2023/01/30 01:20:23;;;;;;;91.25;81.80;;;;;;;-0.19;100.00;101523.97;5063897;28;20098;-81
2023/01/30 01:22:53;;;;;;;74.97;60.63;;;;;;;-0.12;100.00;101519.13;5052993;28;20552;-83
2023/01/30 01:25:21;;;;;;;73.05;62.70;;;;;;;-0.08;100.00;101520.56;5057476;28;20103;-81
2023/01/30 01:27:49;;;;;;;82.18;73.40;;;;;;;-0.11;100.00;101523.41;5062621;28;20110;-82
2023/01/30 01:30:16;;;;;;;63.67;53.83;;;;;;;-0.02;100.00;101522.72;5055017;28;20124;-81
2023/01/30 01:32:43;;;;;;;78.93;68.68;;;;;;;0.22;100.00;101515.59;5063474;28;20044;-81
2023/01/30 01:35:10;;;;;;;60.70;53.42;;;;;;;-0.11;100.00;101521.63;5063380;28;20162;-82
2023/01/30 01:37:37;;;;;;;60.63;53.42;;;;;;;-0.08;100.00;101515.34;5060909;28;20175;-81
2023/01/30 01:42:51;;;;;;;60.67;54.03;;;;;;;0.01;100.00;101508.59;5063643;28;20044;-81
2023/01/30 01:45:20;;;;;;;58.33;51.55;;;;;;;-0.04;100.00;101512.38;5064115;28;20041;-81
2023/01/30 01:47:56;;;;;;;57.45;51.33;;;;;;;0.05;100.00;101516.06;5057965;28;20114;-81
2023/01/30 01:50:26;;;;;;;56.50;50.25;;;;;;;0.03;100.00;101517.13;5064549;28;20052;-81
2023/01/30 01:52:57;;;;;;;56.35;50.40;;;;;;;-0.04;100.00;101508.94;5058478;28;20518;-81
2023/01/30 01:55:25;;;;;;;56.08;48.05;;;;;;;-0.02;100.00;101513.09;5059000;28;20045;-81
2023/01/30 01:57:57;;;;;;;64.57;55.90;;;;;;;0.02;100.00;101505.03;5066842;28;20510;-81
2023/01/30 02:00:25;;;;;;;61.03;50.97;;;;;;;0.06;100.00;101515.13;5066076;28;20056;-83
2023/01/30 02:02:56;;;;;;;55.72;49.95;;;;;;;-0.03;100.00;101508.81;5063637;28;20044;-81
2023/01/30 02:05:25;;;;;;;58.00;51.72;;;;;;;-0.04;100.00;101503.69;5067833;28;20117;-81
2023/01/30 02:07:58;;;;;;;55.25;49.13;;;;;;;-0.18;100.00;101506.53;5066427;28;20052;-81
2023/01/30 02:10:30;;;;;;;55.30;49.70;;;;;;;-0.20;100.00;101498.00;5059998;28;20494;-81
2023/01/30 02:12:58;;;;;;;61.13;54.58;;;;;;;-0.08;100.00;101499.69;5068158;28;20049;-81
2023/01/30 02:15:25;;;;;;;57.78;51.92;;;;;;;-0.15;100.00;101491.47;5059702;28;20061;-81
2023/01/30 02:17:52;;;;;;;55.20;49.50;;;;;;;0.26;100.00;101499.69;5064535;28;20052;-82
2023/01/30 02:20:28;;;;;;;55.15;49.28;;;;;;;-0.07;100.00;101503.94;5065023;28;20045;-81
2023/01/30 02:23:17;;;;;;;59.20;53.35;;;;;;;-0.03;100.00;101494.91;5072995;28;20076;-81
2023/01/30 02:26:13;;;;;;;59.63;53.63;;;;;;;0.02;100.00;101497.19;5060320;28;20049;-82
2023/01/30 02:28:58;;;;;;;58.00;52.20;;;;;;;-0.14;100.00;101484.47;5064166;28;20114;-81
2023/01/30 02:31:32;;;;;;;59.53;53.22;;;;;;;0.08;100.00;101484.47;5064610;28;20052;-82
2023/01/30 02:34:12;;;;;;;58.40;52.22;;;;;;;-0.07;100.00;101483.88;5064639;28;20517;-82
2023/01/30 02:36:51;;;;;;;56.00;50.42;;;;;;;0.00;100.00;101484.25;5062498;28;20044;-82
2023/01/30 02:39:31;;;;;;;54.67;47.60;;;;;;;-0.04;100.00;101485.41;5067284;28;20040;-81
2023/01/30 02:42:05;;;;;;;57.97;50.00;;;;;;;-0.10;100.00;101484.09;5063644;28;20110;-82
2023/01/30 02:44:43;;;;;;;59.38;53.22;;;;;;;-0.06;100.00;101475.09;5062215;28;20080;-81
2023/01/30 02:47:15;;;;;;;59.55;51.92;;;;;;;-0.14;100.00;101492.31;5068656;28;20048;-81
2023/01/30 02:49:45;;;;;;;;;;;;;;;0.02;100.00;101484.94;5064804;28;20482;-82
2023/01/30 02:52:14;;;;;;;56.17;50.13;;;;;;;0.03;100.00;101485.78;5065349;28;19993;-81
2023/01/30 02:54:41;;;;;;;57.72;50.95;;;;;;;-0.10;100.00;101483.28;5065257;28;20052;-81
2023/01/30 02:57:18;;;;;;;56.28;50.60;;;;;;;-0.05;100.00;101489.00;5062037;28;20044;-81
2023/01/30 02:59:48;;;;;;;56.67;49.97;;;;;;;-0.01;100.00;101490.41;5064315;28;20056;-81
2023/01/30 03:06:09;;;;;;;57.38;51.28;;;;;;;-0.11;100.00;101490.28;5073321;28;20052;-82
2023/01/30 03:09:02;;;;;;;57.97;52.10;;;;;;;-0.10;100.00;101493.72;5063448;28;20126;-82
2023/01/30 03:11:43;;;;;;;59.70;53.35;;;;;;;-0.08;100.00;101490.06;5033908;28;20061;-81
2023/01/30 03:14:18;;;;;;;60.10;52.13;;;;;;;-0.03;100.00;101492.28;5033712;28;20049;-82
2023/01/30 03:16:49;;;;;;;57.28;51.17;;;;;;;-0.13;100.00;101486.97;5045539;28;20044;-81
2023/01/30 03:19:26;;;;;;;57.85;51.95;;;;;;;-0.18;100.00;101485.63;5053805;28;20068;-82
2023/01/30 03:22:08;;;;;;;56.40;50.88;;;;;;;-0.13;100.00;101489.56;5053565;28;20048;-81
2023/01/30 03:24:51;;;;;;;55.55;49.63;;;;;;;-0.22;100.00;101487.66;5053597;28;20125;-83
2023/01/30 03:27:26;;;;;;;51.35;46.10;;;;;;;-0.09;100.00;101474.50;5053696;28;20126;-80
2023/01/30 03:30:03;;;;;;;54.95;49.33;;;;;;;-0.31;100.00;101480.53;5053354;28;20094;-81
2023/01/30 03:32:44;;;;;;;56.42;51.22;;;;;;;-0.20;100.00;101482.34;5053581;28;20041;-81
2023/01/30 03:35:16;;;;;;;62.33;56.25;;;;;;;-0.34;100.00;101478.97;5053110;28;20094;-81
2023/01/30 03:38:01;;;;;;;54.75;48.90;;;;;;;-0.31;100.00;101481.34;5053450;28;20048;-80
2023/01/30 03:40:44;;;;;;;55.08;49.60;;;;;;;-0.18;100.00;101483.88;5033223;28;20100;-82
2023/01/30 03:43:14;;;;;;;58.17;52.15;;;;;;;-0.26;100.00;101475.78;5033533;28;20049;-81
2023/01/30 03:45:57;;;;;;;60.35;53.72;;;;;;;-0.13;100.00;101486.97;5051998;28;20467;-81
2023/01/30 03:48:37;;;;;;;56.22;50.25;;;;;;;-0.17;100.00;101476.88;5072602;28;20052;-80
2023/01/30 03:51:20;;;;;;;54.15;48.63;;;;;;;-0.19;100.00;101468.31;5070835;28;20049;-82
2023/01/30 03:53:47;;;;;;;56.17;50.47;;;;;;;-0.21;100.00;101472.81;5053287;28;20516;-82
2023/01/30 03:56:37;;;;;;;64.03;57.10;;;;;;;-0.18;100.00;101468.22;5053025;28;20045;-82
2023/01/30 03:59:14;;;;;;;58.95;52.92;;;;;;;-0.26;100.00;101462.75;5052656;28;20041;-80
2023/01/30 04:01:43;;;;;;;57.47;51.38;;;;;;;-0.35;100.00;101458.22;5052643;28;20057;-81
2023/01/30 04:04:39;;;;;;;55.70;50.20;;;;;;;-0.30;100.00;101459.53;5052919;28;20052;-81
2023/01/30 04:07:14;;;;;;;56.00;50.17;;;;;;;-0.43;100.00;101457.97;5052677;28;20049;-81
2023/01/30 04:09:53;;;;;;;53.90;48.13;;;;;;;-0.34;100.00;101454.66;5052590;28;20045;-82
2023/01/30 04:12:23;;;;;;;54.08;48.35;;;;;;;-0.47;100.00;101454.75;5052622;28;20049;-81
2023/01/30 04:15:15;;;;;;;57.58;51.45;;;;;;;-0.47;100.00;101445.16;5052206;28;20049;-80
2023/01/30 04:17:51;;;;;;;58.72;51.47;;;;;;;-0.35;100.00;101443.38;5052397;28;20075;-81
2023/01/30 04:20:20;;;;;;;56.90;51.13;;;;;;;-0.47;100.00;101442.53;5052192;28;20044;-80
2023/01/30 04:22:52;;;;;;;55.78;49.97;;;;;;;-0.36;100.00;101441.72;5052293;28;20076;-81
2023/01/30 04:25:48;;;;;;;56.20;50.33;;;;;;;-0.36;100.00;101436.50;5052285;28;20045;-82
2023/01/30 04:28:49;;;;;;;71.88;65.15;;;;;;;-0.38;100.00;101441.00;5032778;28;20103;-80
2023/01/30 04:31:25;;;;;;;78.38;71.13;;;;;;;-0.31;100.00;101443.97;4991010;28;20046;-80
2023/01/30 04:34:10;;;;;;;74.93;68.15;;;;;;;-0.27;100.00;101441.03;5021473;28;20046;-81
2023/01/30 04:36:46;;;;;;;74.57;67.60;;;;;;;-0.35;100.00;101450.38;5038480;28;20040;-81
2023/01/30 04:39:14;;;;;;;76.05;68.72;;;;;;;-0.28;100.00;101451.56;5052220;28;20098;-81
2023/01/30 04:41:47;;;;;;;74.20;67.20;;;;;;;-0.27;100.00;101445.44;5052269;28;20052;-81
2023/01/30 04:44:26;;;;;;;74.30;67.38;;;;;;;-0.41;100.00;101451.69;5052197;28;20452;-82
2023/01/30 04:47:06;;;;;;;75.57;68.57;;;;;;;-0.38;100.00;101448.00;5048966;28;20052;-82
2023/01/30 04:49:34;;;;;;;70.55;63.88;;;;;;;-0.34;100.00;101447.66;5051929;28;20500;-81
2023/01/30 04:52:04;;;;;;;71.45;64.53;;;;;;;-0.37;100.00;101447.06;5042997;28;20508;-82
2023/01/30 04:54:48;;;;;;;61.30;55.03;;;;;;;-0.45;100.00;101458.09;5044392;28;20510;-82
2023/01/30 04:57:41;;;;;;;60.97;55.17;;;;;;;-0.43;100.00;101460.56;5031990;28;20547;-81
2023/01/30 05:00:24;;;;;;;73.70;66.25;;;;;;;-0.50;100.00;101452.38;5032069;28;20049;-80
2023/01/30 05:03:02;;;;;;;68.60;62.47;;;;;;;-0.51;100.00;101456.78;4992857;28;20050;-81
2023/01/30 05:05:31;;;;;;;77.72;70.25;;;;;;;-0.46;100.00;101451.19;5004656;28;20046;-80
2023/01/30 05:08:08;;;;;;;51.80;46.65;;;;;;;-0.35;100.00;101450.38;5012487;28;20050;-83
2023/01/30 05:10:49;;;;;;;51.33;46.33;;;;;;;-0.44;100.00;101449.31;5011399;28;20100;-81
2023/01/30 05:13:22;;;;;;;59.47;52.50;;;;;;;-0.40;100.00;101457.72;4992641;28;20058;-80
2023/01/30 05:15:55;;;;;;;53.22;47.65;;;;;;;-0.48;100.00;101445.28;5011666;28;20493;-80
2023/01/30 05:18:47;;;;;;;52.53;47.35;;;;;;;-0.57;100.00;101446.81;5130317;27;20363;-81
2023/01/30 05:21:34;;;;;;;52.90;47.40;;;;;;;-0.46;100.00;101449.41;5130439;28;20392;-83
2023/01/30 05:24:07;;;;;;;54.75;49.38;;;;;;;-0.50;100.00;101452.38;5122718;28;20055;-82
2023/01/30 05:48:06;;;;;;;54.00;48.22;;;;;;;-0.45;100.00;101452.88;5089371;27;20370;-80
2023/01/30 05:50:38;;;;;;;52.55;47.28;;;;;;;-0.30;100.00;101454.31;5073783;28;20054;-79
2023/01/30 05:53:06;;;;;;;61.22;53.42;;;;;;;-0.34;100.00;101452.88;5069434;28;20510;-80
2023/01/30 05:55:57;;;;;;;59.63;52.50;;;;;;;-0.24;100.00;101460.84;5069236;28;20048;-80
2023/01/30 05:58:51;;;;;;;57.45;50.50;;;;;;;-0.40;100.00;101461.16;5049176;28;20479;-81
2023/01/30 06:01:29;;;;;;;64.13;57.35;;;;;;;-0.37;100.00;101460.09;5052091;28;20053;-81
2023/01/30 06:03:59;;;;;;;62.35;54.88;;;;;;;-0.29;100.00;101453.34;5066641;28;20052;-79
2023/01/30 06:06:48;;;;;;;69.30;56.70;;;;;;;-0.31;100.00;101450.03;5068219;28;20059;-79
2023/01/30 06:09:17;;;;;;;67.72;56.15;;;;;;;-0.38;100.00;101453.25;5068070;28;20052;-79
2023/01/30 06:12:08;;;;;;;59.92;53.40;;;;;;;-0.30;100.00;101445.66;5068297;28;20048;-79
2023/01/30 06:14:47;;;;;;;64.05;53.50;;;;;;;-0.21;100.00;101444.09;5068242;28;20045;-79
2023/01/30 06:17:18;;;;;;;63.13;54.20;;;;;;;-0.28;100.00;101438.53;5048431;28;20049;-79
2023/01/30 06:19:56;;;;;;;62.83;55.80;;;;;;;-0.13;100.00;101436.50;5057014;28;20075;-80
2023/01/30 06:22:42;;;;;;;66.25;57.05;;;;;;;-0.10;100.00;101447.53;5076101;28;20114;-78
2023/01/30 06:25:22;;;;;;;72.15;60.70;;;;;;;-0.21;100.00;101437.13;5069632;28;20045;-79
2023/01/30 06:28:04;;;;;;;69.38;57.13;;;;;;;-0.20;100.00;101440.56;5067704;28;20423;-78
2023/01/30 06:30:42;;;;;;;79.57;62.63;;;;;;;-0.06;100.00;101440.31;5068266;28;20071;-79
2023/01/30 06:33:10;;;;;;;64.15;56.03;;;;;;;-0.09;100.00;101432.69;5068166;28;20106;-80
2023/01/30 06:35:54;;;;;;;60.33;54.10;;;;;;;-0.05;100.00;101440.19;5067506;28;20056;-80
2023/01/30 06:38:21;;;;;;;60.03;53.38;;;;;;;-0.08;100.00;101432.59;5068125;28;20106;-78
2023/01/30 06:41:20;;;;;;;58.30;52.15;;;;;;;-0.05;100.00;101436.75;5068104;28;20475;-78
2023/01/30 06:43:58;;;;;;;56.13;50.60;;;;;;;0.02;100.00;101435.31;5065999;28;20083;-79
2023/01/30 06:46:40;;;;;;;59.97;52.20;;;;;;;-0.10;100.00;101431.88;5067201;28;20506;-79
2023/01/30 06:49:14;;;;;;;55.78;49.95;;;;;;;-0.07;100.00;101434.25;5067483;28;20106;-84
2023/01/30 06:52:01;;;;;;;54.03;48.60;;;;;;;-0.02;100.00;101434.72;5067586;28;20053;-80
2023/01/30 06:54:39;;;;;;;55.58;49.65;;;;;;;-0.05;100.00;101442.81;5067617;28;20048;-81
2023/01/30 06:57:15;;;;;;;56.80;51.40;;;;;;;0.05;100.00;101442.91;5068351;28;20074;-80
2023/01/30 06:59:56;;;;;;;57.47;50.95;;;;;;;-0.07;100.00;101446.47;5064743;28;20052;-81
2023/01/30 07:02:39;;;;;;;56.05;48.28;;;;;;;-0.31;100.00;101447.41;5065572;28;20057;-81
2023/01/30 07:05:08;;;;;;;54.28;48.17;;;;;;;-0.16;100.00;101447.19;5054076;28;20490;-80
2023/01/30 07:08:09;;;;;;;53.05;47.53;;;;;;;-0.20;100.00;101451.00;5054266;28;20049;-81
2023/01/30 07:10:36;;;;;;;55.95;49.92;;;;;;;-0.01;100.00;101448.63;5047229;28;21849;-81
2023/01/30 07:13:15;;;;;;;54.47;49.03;;;;;;;-0.10;100.00;101444.94;5047124;28;20057;-81
2023/01/30 07:15:52;;;;;;;57.08;48.65;;;;;;;-0.07;100.00;101449.91;5054416;28;20063;-79
2023/01/30 07:18:26;;;;;;;54.58;48.83;;;;;;;-0.11;100.00;101445.91;5054179;28;20057;-81
2023/01/30 07:20:59;;;;;;;54.00;48.65;;;;;;;-0.03;100.00;101455.72;5053243;28;20478;-80
2023/01/30 07:23:29;;;;;;;55.05;49.35;;;;;;;0.06;100.00;101448.97;5053452;28;20048;-80
2023/01/30 07:29:36;;;;;;;54.30;49.05;;;;;;;0.23;100.00;101451.91;5088516;27;20385;-80
2023/01/30 07:32:05;;;;;;;55.92;50.47;;;;;;;0.14;100.00;101444.81;5087550;28;20051;-81
2023/01/30 07:34:32;;;;;;;60.53;53.20;;;;;;;0.02;100.00;101445.75;5088449;28;20048;-81
2023/01/30 07:37:06;;;;;;;57.60;52.15;;;;;;;0.22;100.00;101452.88;5089062;28;20102;-81
2023/01/30 07:39:37;;;;;;;61.50;53.70;;;;;;;0.11;100.00;101452.88;5088731;28;20404;-79
2023/01/30 07:42:19;;;;;;;61.22;54.83;;;;;;;0.26;100.00;101447.41;5075361;28;20098;-80
2023/01/30 07:45:07;;;;;;;58.63;52.63;;;;;;;0.28;100.00;101454.19;5088786;28;20112;-79
2023/01/30 07:47:49;;;;;;;59.42;53.25;;;;;;;0.41;100.00;101446.19;5083227;28;20049;-79
2023/01/30 07:50:18;;;;;;;57.22;51.58;;;;;;;0.30;100.00;101440.97;5076133;28;20085;-80
2023/01/30 07:53:05;;;;;;;55.45;49.95;;;;;;;0.37;100.00;101436.94;5085141;28;20072;-80
2023/01/30 07:55:44;;;;;;;58.95;53.05;;;;;;;0.30;100.00;101435.75;5088327;28;20101;-80
2023/01/30 07:58:14;;;;;;;54.92;49.63;;;;;;;0.15;100.00;101432.56;5080242;28;20048;-80
2023/01/30 08:01:06;;;;;;;56.55;50.55;;;;;;;0.24;100.00;101434.47;5087023;28;20488;-79
2023/01/30 08:03:42;;;;;;;58.70;51.65;;;;;;;0.29;100.00;101426.28;5069063;28;20102;-82
2023/01/30 08:06:21;;;;;;;56.92;50.72;;;;;;;0.25;100.00;101432.69;5087648;28;20131;-80
2023/01/30 08:08:49;;;;;;;61.83;55.05;;;;;;;0.35;100.00;101429.22;5088003;28;20066;-80
2023/01/30 08:11:27;;;;;;;58.75;52.63;;;;;;;0.25;100.00;101432.69;5069953;28;20546;-79
2023/01/30 08:14:18;;;;;;;59.10;52.78;;;;;;;0.19;100.00;101432.22;5072544;28;20040;-81
2023/01/30 08:16:56;;;;;;;67.25;53.17;;;;;;;0.43;100.00;101432.06;5073984;28;20101;-80
2023/01/30 08:19:39;;;;;;;58.75;52.53;;;;;;;0.41;100.00;101420.06;5087711;28;20048;-80
2023/01/30 08:22:07;;;;;;;;;;;;;;;0.40;100.00;101429.69;5076641;28;20102;-79
2023/01/30 08:24:48;;;;;;;58.63;52.30;;;;;;;0.19;100.00;101437.44;5082469;28;19999;-80
2023/01/30 08:27:41;;;;;;;59.70;53.38;;;;;;;0.56;100.00;101428.47;5086012;28;20055;-82
2023/01/30 08:30:17;;;;;;;63.85;52.53;;;;;;;0.42;100.00;101430.41;5090257;28;20050;-80
2023/01/30 08:32:56;;;;;;;58.25;52.22;;;;;;;0.43;100.00;101434.69;5083181;28;20056;-81
2023/01/30 08:35:35;;;;;;;58.65;52.33;;;;;;;0.42;100.00;101425.19;5072621;28;20121;-80
2023/01/30 08:38:02;;;;;;;60.22;53.60;;;;;;;0.53;100.00;101429.53;5087663;28;20117;-81
2023/01/30 08:40:55;;;;;;;59.67;53.22;;;;;;;0.58;100.00;101418.72;5073670;28;20086;-81
2023/01/30 08:43:28;;;;;;;59.88;53.40;;;;;;;0.43;100.00;101419.00;5074099;28;20138;-80
2023/01/30 08:45:56;;;;;;;60.10;53.97;;;;;;;0.57;100.00;101422.28;5054888;28;20053;-80
2023/01/30 08:48:32;;;;;;;61.42;54.90;;;;;;;0.43;100.00;101412.94;5071352;28;20074;-79
2023/01/30 08:51:08;;;;;;;59.40;53.03;;;;;;;0.32;100.00;101415.56;5058084;28;20159;-80
2023/01/30 08:54:06;;;;;;;61.72;52.60;;;;;;;0.42;100.00;101411.25;5070681;28;20103;-80
2023/01/30 08:56:42;;;;;;;62.00;55.47;;;;;;;0.71;100.00;101414.16;5053912;28;20053;-81
2023/01/30 09:01:33;;;;;;;76.43;60.60;;;;;;;0.58;100.00;101401.25;5082908;27;20390;-81
2023/01/30 09:04:00;;;;;;;71.80;55.85;;;;;;;0.37;100.00;101397.75;5074792;28;20119;-81
2023/01/30 09:09:11;;;;;;;68.88;56.25;;;;;;;0.54;100.00;101401.59;5109626;27;20383;-82
2023/01/30 09:11:39;;;;;;;76.80;59.15;;;;;;;0.36;100.00;101396.06;5103691;28;20499;-81
2023/01/30 09:16:54;;;;;;;69.13;57.55;;;;;;;0.47;100.00;101393.44;5076903;27;20954;-81
2023/01/30 09:19:21;;;;;;;78.45;60.83;;;;;;;0.35;100.00;101381.34;5076665;28;20041;-81
2023/01/30 09:21:49;;;;;;;66.95;55.83;;;;;;;0.15;100.00;101386.41;5071395;28;20575;-81
2023/01/30 09:24:16;;;;;;;71.63;55.47;;;;;;;0.17;100.00;101375.81;5062154;28;20124;-81
2023/01/30 09:26:44;;;;;;;73.68;57.60;;;;;;;0.44;100.00;101378.81;5072684;28;20094;-81
2023/01/30 09:29:11;;;;;;;71.32;62.53;;;;;;;0.72;100.00;101366.13;5069432;28;20052;-81
2023/01/30 09:31:37;;;;;;;69.63;58.85;;;;;;;0.63;100.00;101372.09;5072364;28;20102;-81
2023/01/30 09:34:06;;;;;;;60.40;54.53;;;;;;;0.50;100.00;101372.28;5072875;28;20173;-81
2023/01/30 09:36:32;;;;;;;70.20;63.13;;;;;;;1.19;100.00;101366.59;5074220;28;20041;-81
2023/01/30 09:38:59;;;;;;;59.75;52.70;;;;;;;0.43;100.00;101365.91;5078155;28;20041;-81
2023/01/30 09:41:50;;;;;;;61.45;51.65;;;;;;;0.97;100.00;101361.47;5064341;28;20071;-81
2023/01/30 09:44:44;;;;;;;64.72;54.78;;;;;;;0.46;100.00;101355.19;5065394;28;20057;-81
2023/01/30 09:47:12;;;;;;;108.18;68.13;;;;;;;0.30;100.00;101363.41;5063795;28;20094;-81
2023/01/30 09:49:52;;;;;;;82.10;65.47;;;;;;;0.27;100.00;101355.81;5077013;28;20109;-81
2023/01/30 09:52:28;;;;;;;68.57;61.25;;;;;;;0.54;100.00;101352.75;5067409;28;20110;-81
2023/01/30 09:55:02;;;;;;;62.38;55.92;;;;;;;0.34;100.00;101346.56;5072758;28;20053;-81
2023/01/30 09:57:29;;;;;;;61.80;51.75;;;;;;;0.16;100.00;101337.59;5073200;28;20060;-81
2023/01/30 10:00:00;;;;;;;58.83;52.10;;;;;;;0.59;100.00;101341.94;5073183;28;20498;-81
2023/01/30 10:02:37;;;;;;;62.63;53.00;;;;;;;0.30;100.00;101331.22;5074933;28;20110;-81
2023/01/30 10:05:06;;;;;;;71.63;58.00;;;;;;;0.39;100.00;101330.47;5077935;28;20360;-81
2023/01/30 10:07:46;;;;;;;68.78;55.72;;;;;;;0.29;100.00;101333.03;5062616;28;20441;-81
2023/01/30 10:10:20;;;;;;;60.00;54.17;;;;;;;0.34;100.00;101323.03;5074158;28;20053;-81
2023/01/30 10:12:58;;;;;;;61.53;53.15;;;;;;;0.03;100.00;101314.25;5076706;28;20044;-81
2023/01/30 10:15:48;;;;;;;54.22;48.25;;;;;;;0.13;100.00;101316.94;5066540;28;20048;-81
2023/01/30 10:18:48;;;;;;;58.15;52.00;;;;;;;-0.07;100.00;101315.91;5075514;28;20076;-81
2023/01/30 10:21:24;;;;;;;59.47;53.28;;;;;;;0.06;100.00;101307.91;5075396;28;20051;-81
2023/01/30 10:24:05;;;;;;;54.10;48.63;;;;;;;0.36;100.00;101300.19;5077673;28;20049;-81
2023/01/30 10:26:33;;;;;;;69.18;61.67;;;;;;;0.64;100.00;101301.41;5058989;28;20041;-81
2023/01/30 10:29:04;;;;;;;54.05;48.35;;;;;;;0.39;100.00;101292.13;5046198;28;20136;-81
2023/01/30 10:31:37;;;;;;;56.55;51.58;;;;;;;0.43;100.00;101285.69;5054391;28;20130;-81
2023/01/30 10:34:06;;;;;;;51.65;47.45;;;;;;;0.62;100.00;101292.84;5060200;28;20053;-81
2023/01/30 10:36:41;;;;;;;55.85;50.25;;;;;;;0.49;100.00;101284.38;5055308;28;20041;-81
2023/01/30 10:39:21;;;;;;;56.90;51.22;;;;;;;0.25;100.00;101284.59;5056147;28;20107;-81
2023/01/30 10:41:54;;;;;;;58.53;51.20;;;;;;;-0.30;100.00;101284.63;5061995;28;20053;-81
2023/01/30 10:44:23;;;;;;;52.88;47.35;;;;;;;-0.37;100.00;101274.78;5050009;28;20053;-81
2023/01/30 10:47:11;;;;;;;61.25;51.63;;;;;;;-0.17;100.00;101276.63;5065381;28;20044;-80
2023/01/30 10:49:41;;;;;;;55.92;50.05;;;;;;;-0.32;100.00;101270.84;5050107;28;20044;-81
2023/01/30 10:52:27;;;;;;;51.95;47.42;;;;;;;1.11;100.00;101262.56;5055609;28;20105;-81
2023/01/30 10:55:06;;;;;;;56.67;51.25;;;;;;;-0.37;100.00;101253.91;5051494;28;20106;-81
2023/01/30 10:57:45;;;;;;;54.17;48.72;;;;;;;-0.15;100.00;101243.41;5056078;28;20059;-81
2023/01/30 11:00:22;;;;;;;55.17;49.80;;;;;;;-0.47;100.00;101253.78;5061948;28;20060;-81
2023/01/30 11:03:02;;;;;;;52.58;47.92;;;;;;;0.37;100.00;101244.38;5058110;28;20107;-81
2023/01/30 11:05:38;;;;;;;54.55;48.92;;;;;;;-0.13;100.00;101231.03;5059149;28;20470;-81
2023/01/30 11:08:12;;;;;;;53.25;48.65;;;;;;;-0.52;100.00;101232.44;5049861;28;20498;-81
2023/01/30 11:10:39;;;;;;;56.50;51.15;;;;;;;-0.41;100.00;101229.00;5058417;28;20052;-80
2023/01/30 11:13:16;;;;;;;52.95;47.92;;;;;;;0.10;100.00;101216.13;5058845;28;20102;-80
2023/01/30 11:15:45;;;;;;;51.13;46.90;;;;;;;-0.38;100.00;101218.31;5056153;28;20053;-80
2023/01/30 11:18:13;;;;;;;54.15;49.28;;;;;;;-0.61;100.00;101210.50;5060186;28;20057;-80
2023/01/30 11:20:41;;;;;;;49.78;45.72;;;;;;;-1.08;100.00;101206.41;5050541;28;20127;-80
2023/01/30 11:23:24;;;;;;;51.80;47.75;;;;;;;-0.63;100.00;101209.00;5041871;28;20049;-80
2023/01/30 11:25:54;;;;;;;53.92;48.97;;;;;;;-0.30;100.00;101197.66;5055462;28;20045;-81
2023/01/30 11:28:21;;;;;;;53.58;48.40;;;;;;;0.74;100.00;101198.66;5058901;28;20049;-81
2023/01/30 11:30:54;;;;;;;56.25;50.80;;;;;;;0.58;100.00;101181.66;5058445;28;20063;-81
2023/01/30 11:33:21;;;;;;;53.22;48.60;;;;;;;-0.30;100.00;101187.22;5053826;28;20087;-81
2023/01/30 11:35:54;;;;;;;50.55;47.13;;;;;;;0.01;100.00;101185.53;5055492;28;20099;-81
2023/01/30 11:38:25;;;;;;;51.25;46.88;;;;;;;0.73;100.00;101183.91;5051607;28;20053;-80
2023/01/30 11:41:03;;;;;;;54.03;49.58;;;;;;;-0.46;100.00;101179.75;5062745;28;20498;-81
2023/01/30 11:43:30;;;;;;;57.05;51.50;;;;;;;-0.18;100.00;101186.22;5059933;28;20049;-81
2023/01/30 11:45:58;;;;;;;59.78;53.92;;;;;;;0.18;100.00;101174.53;5061068;28;20052;-81
2023/01/30 11:48:28;;;;;;;50.75;46.53;;;;;;;-0.56;100.00;101176.25;5056552;28;20053;-80
2023/01/30 11:51:01;;;;;;;52.67;48.25;;;;;;;-0.65;100.00;101174.38;5057796;28;20590;-80
2023/01/30 11:53:34;;;;;;;62.60;56.03;;;;;;;0.00;100.00;101176.06;5049592;28;20047;-81
2023/01/30 11:56:06;;;;;;;246.60;121.35;;;;;;;-0.14;100.00;101168.50;5053990;28;20045;-82
2023/01/30 11:58:36;;;;;;;60.95;52.70;;;;;;;0.06;100.00;101159.03;5058911;28;20044;-81
2023/01/30 12:01:04;;;;;;;85.30;64.93;;;;;;;0.66;100.00;101155.66;5041795;28;20115;-83
2023/01/30 12:03:33;;;;;;;63.28;56.97;;;;;;;0.32;100.00;101159.47;5051171;28;20095;-81
2023/01/30 12:06:00;;;;;;;51.05;46.80;;;;;;;-0.18;100.00;101154.03;5056196;28;20129;-81
2023/01/30 12:08:36;;;;;;;56.38;51.13;;;;;;;-0.51;100.00;101148.81;5053235;28;20045;-80
2023/01/30 12:11:06;;;;;;;56.97;51.63;;;;;;;-0.44;100.00;101135.28;5058273;28;20062;-80
2023/01/30 12:13:38;;;;;;;56.70;51.20;;;;;;;-0.02;100.00;101126.53;5054829;28;20128;-80
2023/01/30 12:16:16;;;;;;;56.20;50.75;;;;;;;-0.33;100.00;101136.06;5057613;28;20122;-83
2023/01/30 12:18:50;;;;;;;59.15;53.65;;;;;;;-0.01;100.00;101130.81;5063457;28;20041;-81
2023/01/30 12:21:33;;;;;;;58.55;53.08;;;;;;;0.15;100.00;101125.16;5060783;28;20053;-81
2023/01/30 12:24:12;;;;;;;60.13;54.10;;;;;;;0.78;100.00;101122.41;5057586;28;20114;-81